sensor_id;sensor_type;location;lat;lon;timestamp;temperature;humidity
10296;DHT22;5193;51.032;6.356;2023-04-21T00:02:00;7.00;99.90
10296;DHT22;5193;51.032;6.356;2023-04-21T00:04:25;7.00;99.90
10296;DHT22;5193;51.032;6.356;2023-04-21T00:06:51;7.00;99.90
10296;DHT22;5193;51.032;6.356;2023-04-21T00:09:17;7.00;99.90
10296;DHT22;5193;51.032;6.356;2023-04-21T00:11:43;7.00;99.90
10296;DHT22;5193;51.032;6.356;2023-04-21T00:14:08;7.10;99.90
10296;DHT22;5193;51.032;6.356;2023-04-21T00:16:34;7.00;99.90
10296;DHT22;5193;51.032;6.356;2023-04-21T00:19:00;7.00;99.90
10296;DHT22;5193;51.032;6.356;2023-04-21T00:21:27;7.10;99.90
10296;DHT22;5193;51.032;6.356;2023-04-21T00:23:52;7.10;99.90
10296;DHT22;5193;51.032;6.356;2023-04-21T00:26:18;7.10;99.90
10296;DHT22;5193;51.032;6.356;2023-04-21T00:28:45;7.10;99.90
10296;DHT22;5193;51.032;6.356;2023-04-21T00:31:10;7.10;99.90
10296;DHT22;5193;51.032;6.356;2023-04-21T00:33:36;7.10;99.90
10296;DHT22;5193;51.032;6.356;2023-04-21T00:36:02;7.10;99.90
10296;DHT22;5193;51.032;6.356;2023-04-21T00:38:27;7.10;99.90
10296;DHT22;5193;51.032;6.356;2023-04-21T00:40:53;7.10;99.90
10296;DHT22;5193;51.032;6.356;2023-04-21T00:43:19;7.10;99.90
10296;DHT22;5193;51.032;6.356;2023-04-21T00:45:45;7.10;99.90
10296;DHT22;5193;51.032;6.356;2023-04-21T00:48:23;7.10;99.90
10296;DHT22;5193;51.032;6.356;2023-04-21T00:50:48;7.10;99.90
10296;DHT22;5193;51.032;6.356;2023-04-21T00:53:14;7.10;99.90
10296;DHT22;5193;51.032;6.356;2023-04-21T00:55:40;7.10;99.90
10296;DHT22;5193;51.032;6.356;2023-04-21T00:58:06;7.10;99.90
10296;DHT22;5193;51.032;6.356;2023-04-21T01:00:32;7.10;99.90
10296;DHT22;5193;51.032;6.356;2023-04-21T01:02:59;7.10;99.90
10296;DHT22;5193;51.032;6.356;2023-04-21T01:05:25;7.10;99.90
10296;DHT22;5193;51.032;6.356;2023-04-21T01:07:51;7.10;99.90
10296;DHT22;5193;51.032;6.356;2023-04-21T01:10:17;7.10;99.90
10296;DHT22;5193;51.032;6.356;2023-04-21T01:12:43;7.10;99.90
10296;DHT22;5193;51.032;6.356;2023-04-21T01:15:11;7.10;99.90
10296;DHT22;5193;51.032;6.356;2023-04-21T01:17:37;7.20;99.90
10296;DHT22;5193;51.032;6.356;2023-04-21T01:20:07;7.20;99.90
10296;DHT22;5193;51.032;6.356;2023-04-21T01:22:39;7.20;99.90
10296;DHT22;5193;51.032;6.356;2023-04-21T01:25:06;7.20;99.90
10296;DHT22;5193;51.032;6.356;2023-04-21T01:27:32;7.20;99.90
10296;DHT22;5193;51.032;6.356;2023-04-21T01:29:58;7.20;99.90
10296;DHT22;5193;51.032;6.356;2023-04-21T01:32:26;7.20;99.90
10296;DHT22;5193;51.032;6.356;2023-04-21T01:34:54;7.20;99.90
10296;DHT22;5193;51.032;6.356;2023-04-21T01:37:22;7.20;99.90
10296;DHT22;5193;51.032;6.356;2023-04-21T01:39:51;7.20;99.90
10296;DHT22;5193;51.032;6.356;2023-04-21T01:42:19;7.20;99.90
10296;DHT22;5193;51.032;6.356;2023-04-21T01:44:45;7.20;99.90
10296;DHT22;5193;51.032;6.356;2023-04-21T01:47:11;7.20;99.90
10296;DHT22;5193;51.032;6.356;2023-04-21T01:49:37;7.20;99.90
10296;DHT22;5193;51.032;6.356;2023-04-21T01:52:03;7.30;99.90
10296;DHT22;5193;51.032;6.356;2023-04-21T01:54:29;7.30;99.90
10296;DHT22;5193;51.032;6.356;2023-04-21T01:56:54;7.30;99.90
10296;DHT22;5193;51.032;6.356;2023-04-21T01:59:20;7.30;99.90
10296;DHT22;5193;51.032;6.356;2023-04-21T02:01:46;7.30;99.90
10296;DHT22;5193;51.032;6.356;2023-04-21T02:04:12;7.30;99.90
10296;DHT22;5193;51.032;6.356;2023-04-21T02:06:37;7.30;99.90
10296;DHT22;5193;51.032;6.356;2023-04-21T02:09:03;7.30;99.90
10296;DHT22;5193;51.032;6.356;2023-04-21T02:11:28;7.30;99.90
10296;DHT22;5193;51.032;6.356;2023-04-21T02:13:54;7.30;99.90
10296;DHT22;5193;51.032;6.356;2023-04-21T02:16:21;7.30;99.90
10296;DHT22;5193;51.032;6.356;2023-04-21T02:18:51;7.30;99.90
10296;DHT22;5193;51.032;6.356;2023-04-21T02:21:16;7.30;99.90
10296;DHT22;5193;51.032;6.356;2023-04-21T02:23:42;7.30;99.90
10296;DHT22;5193;51.032;6.356;2023-04-21T02:26:07;7.30;99.90
10296;DHT22;5193;51.032;6.356;2023-04-21T02:28:33;7.30;99.90
10296;DHT22;5193;51.032;6.356;2023-04-21T02:30:59;7.30;99.90
10296;DHT22;5193;51.032;6.356;2023-04-21T02:33:24;7.30;99.90
10296;DHT22;5193;51.032;6.356;2023-04-21T02:35:50;7.30;99.90
10296;DHT22;5193;51.032;6.356;2023-04-21T02:38:16;7.30;99.90
10296;DHT22;5193;51.032;6.356;2023-04-21T02:40:41;7.30;99.90
10296;DHT22;5193;51.032;6.356;2023-04-21T02:43:07;7.30;99.90
10296;DHT22;5193;51.032;6.356;2023-04-21T02:45:33;7.30;99.90
10296;DHT22;5193;51.032;6.356;2023-04-21T02:47:58;7.30;99.90
10296;DHT22;5193;51.032;6.356;2023-04-21T02:50:24;7.30;99.90
10296;DHT22;5193;51.032;6.356;2023-04-21T02:52:50;7.30;99.90
10296;DHT22;5193;51.032;6.356;2023-04-21T02:55:15;7.30;99.90
10296;DHT22;5193;51.032;6.356;2023-04-21T02:57:41;7.20;99.90
10296;DHT22;5193;51.032;6.356;2023-04-21T03:00:07;7.20;99.90
10296;DHT22;5193;51.032;6.356;2023-04-21T03:02:36;7.20;99.90
10296;DHT22;5193;51.032;6.356;2023-04-21T03:05:01;7.20;99.90
10296;DHT22;5193;51.032;6.356;2023-04-21T03:07:28;7.20;99.90
10296;DHT22;5193;51.032;6.356;2023-04-21T03:09:54;7.20;99.90
10296;DHT22;5193;51.032;6.356;2023-04-21T03:12:19;7.20;99.90
10296;DHT22;5193;51.032;6.356;2023-04-21T03:14:45;7.20;99.90
10296;DHT22;5193;51.032;6.356;2023-04-21T03:17:10;7.20;99.90
10296;DHT22;5193;51.032;6.356;2023-04-21T03:19:36;7.20;99.90
10296;DHT22;5193;51.032;6.356;2023-04-21T03:22:01;7.20;99.90
10296;DHT22;5193;51.032;6.356;2023-04-21T03:24:28;7.20;99.90
10296;DHT22;5193;51.032;6.356;2023-04-21T03:26:54;7.10;99.90
10296;DHT22;5193;51.032;6.356;2023-04-21T03:29:21;7.20;99.90
10296;DHT22;5193;51.032;6.356;2023-04-21T03:31:47;7.10;99.90
10296;DHT22;5193;51.032;6.356;2023-04-21T03:34:13;7.10;99.90
10296;DHT22;5193;51.032;6.356;2023-04-21T03:36:38;7.10;99.90
10296;DHT22;5193;51.032;6.356;2023-04-21T03:39:04;7.00;99.90
10296;DHT22;5193;51.032;6.356;2023-04-21T03:41:30;7.00;99.90
10296;DHT22;5193;51.032;6.356;2023-04-21T03:43:55;6.90;99.90
10296;DHT22;5193;51.032;6.356;2023-04-21T03:46:21;6.90;99.90
10296;DHT22;5193;51.032;6.356;2023-04-21T03:48:47;6.80;99.90
10296;DHT22;5193;51.032;6.356;2023-04-21T03:51:13;6.80;99.90
10296;DHT22;5193;51.032;6.356;2023-04-21T03:53:39;6.70;99.90
10296;DHT22;5193;51.032;6.356;2023-04-21T03:56:05;6.70;99.90
10296;DHT22;5193;51.032;6.356;2023-04-21T03:58:31;6.60;99.90
10296;DHT22;5193;51.032;6.356;2023-04-21T04:00:56;6.50;99.90
10296;DHT22;5193;51.032;6.356;2023-04-21T04:03:22;6.40;99.90
10296;DHT22;5193;51.032;6.356;2023-04-21T04:05:47;6.30;99.90
10296;DHT22;5193;51.032;6.356;2023-04-21T04:08:13;6.30;99.90
10296;DHT22;5193;51.032;6.356;2023-04-21T04:10:38;6.20;99.90
10296;DHT22;5193;51.032;6.356;2023-04-21T04:13:04;6.20;99.90
10296;DHT22;5193;51.032;6.356;2023-04-21T04:15:30;6.10;99.90
10296;DHT22;5193;51.032;6.356;2023-04-21T04:17:55;6.10;99.90
10296;DHT22;5193;51.032;6.356;2023-04-21T04:20:21;6.00;99.90
10296;DHT22;5193;51.032;6.356;2023-04-21T04:22:47;6.00;99.90
10296;DHT22;5193;51.032;6.356;2023-04-21T04:25:12;6.00;99.90
10296;DHT22;5193;51.032;6.356;2023-04-21T04:27:44;5.90;99.90
10296;DHT22;5193;51.032;6.356;2023-04-21T04:30:11;5.90;99.90
10296;DHT22;5193;51.032;6.356;2023-04-21T04:32:37;5.90;99.90
10296;DHT22;5193;51.032;6.356;2023-04-21T04:35:05;5.80;99.90
10296;DHT22;5193;51.032;6.356;2023-04-21T04:37:30;5.80;99.90
10296;DHT22;5193;51.032;6.356;2023-04-21T04:39:59;5.80;99.90
10296;DHT22;5193;51.032;6.356;2023-04-21T04:42:24;5.70;99.90
10296;DHT22;5193;51.032;6.356;2023-04-21T04:44:53;5.70;99.90
10296;DHT22;5193;51.032;6.356;2023-04-21T04:47:19;5.70;99.90
10296;DHT22;5193;51.032;6.356;2023-04-21T04:49:44;5.60;99.90
10296;DHT22;5193;51.032;6.356;2023-04-21T04:52:11;5.60;99.90
10296;DHT22;5193;51.032;6.356;2023-04-21T04:54:36;5.60;99.90
10296;DHT22;5193;51.032;6.356;2023-04-21T04:57:02;5.60;99.90
10296;DHT22;5193;51.032;6.356;2023-04-21T04:59:28;5.60;99.90
10296;DHT22;5193;51.032;6.356;2023-04-21T05:01:54;5.60;99.90
10296;DHT22;5193;51.032;6.356;2023-04-21T05:04:20;5.60;99.90
10296;DHT22;5193;51.032;6.356;2023-04-21T05:06:46;5.70;99.90
10296;DHT22;5193;51.032;6.356;2023-04-21T05:09:11;5.70;99.90
10296;DHT22;5193;51.032;6.356;2023-04-21T05:11:37;5.70;99.90
10296;DHT22;5193;51.032;6.356;2023-04-21T05:14:02;5.70;99.90
10296;DHT22;5193;51.032;6.356;2023-04-21T05:16:28;5.80;99.90
10296;DHT22;5193;51.032;6.356;2023-04-21T05:18:54;5.80;99.90
10296;DHT22;5193;51.032;6.356;2023-04-21T05:21:25;5.80;99.90
10296;DHT22;5193;51.032;6.356;2023-04-21T05:23:54;5.80;99.90
10296;DHT22;5193;51.032;6.356;2023-04-21T05:26:21;5.90;99.90
10296;DHT22;5193;51.032;6.356;2023-04-21T05:28:47;5.90;99.90
10296;DHT22;5193;51.032;6.356;2023-04-21T05:31:13;5.90;99.90
10296;DHT22;5193;51.032;6.356;2023-04-21T05:33:38;5.90;99.90
10296;DHT22;5193;51.032;6.356;2023-04-21T05:36:08;5.90;99.90
10296;DHT22;5193;51.032;6.356;2023-04-21T05:38:34;6.00;99.90
10296;DHT22;5193;51.032;6.356;2023-04-21T05:41:00;6.10;99.90
10296;DHT22;5193;51.032;6.356;2023-04-21T05:43:26;6.20;99.90
10296;DHT22;5193;51.032;6.356;2023-04-21T05:45:51;6.30;99.90
10296;DHT22;5193;51.032;6.356;2023-04-21T05:48:17;6.40;99.90
10296;DHT22;5193;51.032;6.356;2023-04-21T05:50:43;6.50;99.90
10296;DHT22;5193;51.032;6.356;2023-04-21T05:53:08;6.60;99.90
10296;DHT22;5193;51.032;6.356;2023-04-21T05:55:35;6.70;99.90
10296;DHT22;5193;51.032;6.356;2023-04-21T05:58:00;6.80;99.90
10296;DHT22;5193;51.032;6.356;2023-04-21T06:00:26;6.80;99.90
10296;DHT22;5193;51.032;6.356;2023-04-21T06:02:51;6.90;99.90
10296;DHT22;5193;51.032;6.356;2023-04-21T06:05:17;6.90;99.90
10296;DHT22;5193;51.032;6.356;2023-04-21T06:07:43;7.00;99.90
10296;DHT22;5193;51.032;6.356;2023-04-21T06:10:10;7.00;99.90
10296;DHT22;5193;51.032;6.356;2023-04-21T06:12:35;7.20;99.90
10296;DHT22;5193;51.032;6.356;2023-04-21T06:15:01;7.30;99.90
10296;DHT22;5193;51.032;6.356;2023-04-21T06:17:27;7.40;99.90
10296;DHT22;5193;51.032;6.356;2023-04-21T06:19:52;7.50;99.90
10296;DHT22;5193;51.032;6.356;2023-04-21T06:22:23;7.70;99.90
10296;DHT22;5193;51.032;6.356;2023-04-21T06:24:48;7.90;99.90
10296;DHT22;5193;51.032;6.356;2023-04-21T06:27:14;8.10;99.90
10296;DHT22;5193;51.032;6.356;2023-04-21T06:29:40;8.20;99.90
10296;DHT22;5193;51.032;6.356;2023-04-21T06:32:10;8.40;99.90
10296;DHT22;5193;51.032;6.356;2023-04-21T06:34:36;8.60;99.90
10296;DHT22;5193;51.032;6.356;2023-04-21T06:37:02;8.70;99.90
10296;DHT22;5193;51.032;6.356;2023-04-21T06:39:27;9.00;99.90
10296;DHT22;5193;51.032;6.356;2023-04-21T06:41:53;9.10;99.90
10296;DHT22;5193;51.032;6.356;2023-04-21T06:44:19;9.20;99.90
10296;DHT22;5193;51.032;6.356;2023-04-21T06:46:45;9.30;99.90
10296;DHT22;5193;51.032;6.356;2023-04-21T06:49:11;9.40;99.90
10296;DHT22;5193;51.032;6.356;2023-04-21T06:51:37;9.50;99.90
10296;DHT22;5193;51.032;6.356;2023-04-21T06:54:03;9.70;99.90
10296;DHT22;5193;51.032;6.356;2023-04-21T06:56:30;9.70;99.90
10296;DHT22;5193;51.032;6.356;2023-04-21T06:58:55;11.10;99.90
10296;DHT22;5193;51.032;6.356;2023-04-21T07:01:21;10.00;99.90
10296;DHT22;5193;51.032;6.356;2023-04-21T07:03:49;10.10;99.90
10296;DHT22;5193;51.032;6.356;2023-04-21T07:06:15;10.10;99.90
10296;DHT22;5193;51.032;6.356;2023-04-21T07:08:40;10.10;99.90
10296;DHT22;5193;51.032;6.356;2023-04-21T07:11:06;10.10;99.90
10296;DHT22;5193;51.032;6.356;2023-04-21T07:13:31;10.20;99.90
10296;DHT22;5193;51.032;6.356;2023-04-21T07:15:57;10.30;99.90
10296;DHT22;5193;51.032;6.356;2023-04-21T07:18:23;10.40;99.90
10296;DHT22;5193;51.032;6.356;2023-04-21T07:20:48;10.50;99.90
10296;DHT22;5193;51.032;6.356;2023-04-21T07:23:14;10.60;99.90
10296;DHT22;5193;51.032;6.356;2023-04-21T07:25:39;10.70;99.90
10296;DHT22;5193;51.032;6.356;2023-04-21T07:28:05;10.80;99.90
10296;DHT22;5193;51.032;6.356;2023-04-21T07:30:31;10.80;99.90
10296;DHT22;5193;51.032;6.356;2023-04-21T07:32:57;10.90;99.90
10296;DHT22;5193;51.032;6.356;2023-04-21T07:35:23;11.00;99.90
10296;DHT22;5193;51.032;6.356;2023-04-21T07:37:48;11.10;99.90
10296;DHT22;5193;51.032;6.356;2023-04-21T07:40:14;11.10;99.90
10296;DHT22;5193;51.032;6.356;2023-04-21T07:42:40;11.20;99.90
10296;DHT22;5193;51.032;6.356;2023-04-21T07:45:06;11.20;99.90
10296;DHT22;5193;51.032;6.356;2023-04-21T07:47:32;11.30;99.90
10296;DHT22;5193;51.032;6.356;2023-04-21T07:49:58;11.40;99.90
10296;DHT22;5193;51.032;6.356;2023-04-21T07:52:23;11.50;99.90
10296;DHT22;5193;51.032;6.356;2023-04-21T07:54:49;11.60;99.90
10296;DHT22;5193;51.032;6.356;2023-04-21T07:57:15;11.60;99.90
10296;DHT22;5193;51.032;6.356;2023-04-21T07:59:41;11.60;99.90
10296;DHT22;5193;51.032;6.356;2023-04-21T08:02:07;11.70;99.90
10296;DHT22;5193;51.032;6.356;2023-04-21T08:04:32;11.80;99.90
10296;DHT22;5193;51.032;6.356;2023-04-21T08:06:58;11.90;99.90
10296;DHT22;5193;51.032;6.356;2023-04-21T08:09:24;12.00;99.90
10296;DHT22;5193;51.032;6.356;2023-04-21T08:11:50;12.00;99.90
10296;DHT22;5193;51.032;6.356;2023-04-21T08:14:16;12.10;99.90
10296;DHT22;5193;51.032;6.356;2023-04-21T08:16:41;12.10;99.90
10296;DHT22;5193;51.032;6.356;2023-04-21T08:19:08;12.20;99.90
10296;DHT22;5193;51.032;6.356;2023-04-21T08:21:34;12.20;99.90
10296;DHT22;5193;51.032;6.356;2023-04-21T08:24:00;12.40;99.90
10296;DHT22;5193;51.032;6.356;2023-04-21T08:26:25;12.40;99.90
10296;DHT22;5193;51.032;6.356;2023-04-21T08:28:51;12.50;99.90
10296;DHT22;5193;51.032;6.356;2023-04-21T08:31:18;12.60;99.90
10296;DHT22;5193;51.032;6.356;2023-04-21T08:33:44;12.70;99.90
10296;DHT22;5193;51.032;6.356;2023-04-21T08:36:09;12.80;99.90
10296;DHT22;5193;51.032;6.356;2023-04-21T08:38:36;12.90;99.90
10296;DHT22;5193;51.032;6.356;2023-04-21T08:41:03;12.90;99.90
10296;DHT22;5193;51.032;6.356;2023-04-21T08:43:28;12.90;99.90
10296;DHT22;5193;51.032;6.356;2023-04-21T08:45:55;13.10;99.90
10296;DHT22;5193;51.032;6.356;2023-04-21T08:48:28;13.20;99.90
10296;DHT22;5193;51.032;6.356;2023-04-21T08:50:54;13.20;99.90
10296;DHT22;5193;51.032;6.356;2023-04-21T08:53:21;13.30;99.90
10296;DHT22;5193;51.032;6.356;2023-04-21T08:55:51;13.50;99.90
10296;DHT22;5193;51.032;6.356;2023-04-21T08:58:17;13.50;99.90
10296;DHT22;5193;51.032;6.356;2023-04-21T09:00:43;13.50;99.90
10296;DHT22;5193;51.032;6.356;2023-04-21T09:03:09;13.40;99.90
10296;DHT22;5193;51.032;6.356;2023-04-21T09:05:34;13.30;99.90
10296;DHT22;5193;51.032;6.356;2023-04-21T09:08:09;13.30;99.90
10296;DHT22;5193;51.032;6.356;2023-04-21T09:10:48;13.40;99.90
10296;DHT22;5193;51.032;6.356;2023-04-21T09:13:15;13.40;99.90
10296;DHT22;5193;51.032;6.356;2023-04-21T09:15:49;13.50;99.90
10296;DHT22;5193;51.032;6.356;2023-04-21T09:18:18;13.50;99.90
10296;DHT22;5193;51.032;6.356;2023-04-21T09:20:45;13.60;99.90
10296;DHT22;5193;51.032;6.356;2023-04-21T09:23:11;13.80;99.90
10296;DHT22;5193;51.032;6.356;2023-04-21T09:25:41;14.00;99.90
10296;DHT22;5193;51.032;6.356;2023-04-21T09:28:08;14.20;99.90
10296;DHT22;5193;51.032;6.356;2023-04-21T09:30:35;14.30;99.90
10296;DHT22;5193;51.032;6.356;2023-04-21T09:33:01;14.30;99.90
10296;DHT22;5193;51.032;6.356;2023-04-21T09:35:34;14.30;99.90
10296;DHT22;5193;51.032;6.356;2023-04-21T09:38:02;14.40;99.90
10296;DHT22;5193;51.032;6.356;2023-04-21T09:40:30;14.40;99.90
10296;DHT22;5193;51.032;6.356;2023-04-21T09:42:56;14.30;99.90
10296;DHT22;5193;51.032;6.356;2023-04-21T09:45:26;14.30;99.90
10296;DHT22;5193;51.032;6.356;2023-04-21T09:47:55;14.30;99.90
10296;DHT22;5193;51.032;6.356;2023-04-21T09:50:22;14.40;99.90
10296;DHT22;5193;51.032;6.356;2023-04-21T09:52:50;14.50;99.90
10296;DHT22;5193;51.032;6.356;2023-04-21T09:55:17;14.70;99.90
10296;DHT22;5193;51.032;6.356;2023-04-21T09:57:45;14.70;99.90
10296;DHT22;5193;51.032;6.356;2023-04-21T10:00:12;14.70;99.90
10296;DHT22;5193;51.032;6.356;2023-04-21T10:02:43;14.70;99.90
10296;DHT22;5193;51.032;6.356;2023-04-21T10:05:10;14.80;99.90
10296;DHT22;5193;51.032;6.356;2023-04-21T10:07:36;14.80;99.90
10296;DHT22;5193;51.032;6.356;2023-04-21T10:10:02;14.80;99.90
10296;DHT22;5193;51.032;6.356;2023-04-21T10:12:28;14.80;99.90
10296;DHT22;5193;51.032;6.356;2023-04-21T10:14:55;14.90;99.90
10296;DHT22;5193;51.032;6.356;2023-04-21T10:17:22;15.00;99.90
10296;DHT22;5193;51.032;6.356;2023-04-21T10:19:53;15.10;99.90
10296;DHT22;5193;51.032;6.356;2023-04-21T10:22:32;15.20;99.90
10296;DHT22;5193;51.032;6.356;2023-04-21T10:24:59;15.20;99.90
10296;DHT22;5193;51.032;6.356;2023-04-21T10:27:38;15.40;99.90
10296;DHT22;5193;51.032;6.356;2023-04-21T10:30:24;15.60;99.90
10296;DHT22;5193;51.032;6.356;2023-04-21T10:33:06;15.70;99.90
10296;DHT22;5193;51.032;6.356;2023-04-21T10:36:10;15.80;99.90
10296;DHT22;5193;51.032;6.356;2023-04-21T10:38:41;15.80;99.90
10296;DHT22;5193;51.032;6.356;2023-04-21T10:41:32;15.90;99.90
10296;DHT22;5193;51.032;6.356;2023-04-21T10:54:26;15.90;99.90
10296;DHT22;5193;51.032;6.356;2023-04-21T10:56:56;15.90;99.90
10296;DHT22;5193;51.032;6.356;2023-04-21T10:59:22;15.80;99.90
10296;DHT22;5193;51.032;6.356;2023-04-21T11:01:48;15.80;99.90
10296;DHT22;5193;51.032;6.356;2023-04-21T11:04:20;15.90;99.90
10296;DHT22;5193;51.032;6.356;2023-04-21T11:07:08;16.00;99.90
10296;DHT22;5193;51.032;6.356;2023-04-21T11:09:36;16.00;99.90
10296;DHT22;5193;51.032;6.356;2023-04-21T11:12:09;16.20;99.90
10296;DHT22;5193;51.032;6.356;2023-04-21T11:14:36;16.40;99.90
10296;DHT22;5193;51.032;6.356;2023-04-21T11:17:04;16.50;99.90
10296;DHT22;5193;51.032;6.356;2023-04-21T11:19:32;16.60;99.90
10296;DHT22;5193;51.032;6.356;2023-04-21T11:21:58;16.70;99.90
10296;DHT22;5193;51.032;6.356;2023-04-21T11:24:24;16.80;99.90
10296;DHT22;5193;51.032;6.356;2023-04-21T11:26:51;17.00;99.90
10296;DHT22;5193;51.032;6.356;2023-04-21T11:29:16;17.00;99.90
10296;DHT22;5193;51.032;6.356;2023-04-21T11:31:44;17.00;99.90
10296;DHT22;5193;51.032;6.356;2023-04-21T11:34:13;17.00;99.90
10296;DHT22;5193;51.032;6.356;2023-04-21T11:36:44;17.10;99.90
10296;DHT22;5193;51.032;6.356;2023-04-21T11:39:12;17.10;99.90
10296;DHT22;5193;51.032;6.356;2023-04-21T11:41:40;17.20;99.90
10296;DHT22;5193;51.032;6.356;2023-04-21T11:44:12;17.20;99.90
10296;DHT22;5193;51.032;6.356;2023-04-21T11:46:45;17.20;99.90
10296;DHT22;5193;51.032;6.356;2023-04-21T11:49:12;17.20;99.90
10296;DHT22;5193;51.032;6.356;2023-04-21T11:51:41;17.30;99.90
10296;DHT22;5193;51.032;6.356;2023-04-21T11:54:12;17.20;99.90
10296;DHT22;5193;51.032;6.356;2023-04-21T11:56:42;17.20;99.90
10296;DHT22;5193;51.032;6.356;2023-04-21T11:59:12;17.30;99.90
10296;DHT22;5193;51.032;6.356;2023-04-21T12:01:52;17.50;99.90
10296;DHT22;5193;51.032;6.356;2023-04-21T12:04:20;17.60;99.90
10296;DHT22;5193;51.032;6.356;2023-04-21T12:06:57;17.70;99.90
10296;DHT22;5193;51.032;6.356;2023-04-21T12:09:23;17.70;99.90
10296;DHT22;5193;51.032;6.356;2023-04-21T12:11:51;17.80;99.90
10296;DHT22;5193;51.032;6.356;2023-04-21T12:14:19;17.80;99.90
10296;DHT22;5193;51.032;6.356;2023-04-21T12:16:48;17.80;99.90
10296;DHT22;5193;51.032;6.356;2023-04-21T12:19:34;17.80;99.90
10296;DHT22;5193;51.032;6.356;2023-04-21T12:21:59;17.90;99.90
10296;DHT22;5193;51.032;6.356;2023-04-21T12:24:25;18.10;99.90
10296;DHT22;5193;51.032;6.356;2023-04-21T12:26:51;18.10;99.90
10296;DHT22;5193;51.032;6.356;2023-04-21T12:29:17;18.20;99.90
10296;DHT22;5193;51.032;6.356;2023-04-21T12:31:42;18.30;99.90
10296;DHT22;5193;51.032;6.356;2023-04-21T12:34:08;18.40;99.90
10296;DHT22;5193;51.032;6.356;2023-04-21T12:36:34;18.40;99.90
10296;DHT22;5193;51.032;6.356;2023-04-21T12:39:00;18.50;99.90
10296;DHT22;5193;51.032;6.356;2023-04-21T12:41:25;18.50;99.90
10296;DHT22;5193;51.032;6.356;2023-04-21T12:43:51;18.50;99.90
10296;DHT22;5193;51.032;6.356;2023-04-21T12:46:16;18.60;99.90
10296;DHT22;5193;51.032;6.356;2023-04-21T12:48:42;18.70;99.90
10296;DHT22;5193;51.032;6.356;2023-04-21T12:51:08;18.60;99.90
10296;DHT22;5193;51.032;6.356;2023-04-21T12:53:34;18.70;99.90
10296;DHT22;5193;51.032;6.356;2023-04-21T12:56:01;18.70;99.90
10296;DHT22;5193;51.032;6.356;2023-04-21T12:58:26;18.70;99.90
10296;DHT22;5193;51.032;6.356;2023-04-21T13:00:52;18.80;99.90
10296;DHT22;5193;51.032;6.356;2023-04-21T13:03:17;18.80;99.90
10296;DHT22;5193;51.032;6.356;2023-04-21T13:05:43;18.90;99.90
10296;DHT22;5193;51.032;6.356;2023-04-21T13:08:08;18.80;99.90
10296;DHT22;5193;51.032;6.356;2023-04-21T13:10:34;18.90;99.90
10296;DHT22;5193;51.032;6.356;2023-04-21T13:13:00;19.10;99.90
10296;DHT22;5193;51.032;6.356;2023-04-21T13:15:25;19.30;99.90
10296;DHT22;5193;51.032;6.356;2023-04-21T13:17:51;19.40;99.90
10296;DHT22;5193;51.032;6.356;2023-04-21T13:20:16;19.40;99.90
10296;DHT22;5193;51.032;6.356;2023-04-21T13:22:43;19.50;99.90
10296;DHT22;5193;51.032;6.356;2023-04-21T13:25:09;19.60;99.90
10296;DHT22;5193;51.032;6.356;2023-04-21T13:27:35;19.60;99.90
10296;DHT22;5193;51.032;6.356;2023-04-21T13:30:05;19.70;99.90
10296;DHT22;5193;51.032;6.356;2023-04-21T13:32:31;19.80;99.90
10296;DHT22;5193;51.032;6.356;2023-04-21T13:34:56;19.90;99.90
10296;DHT22;5193;51.032;6.356;2023-04-21T13:37:22;20.20;99.90
10296;DHT22;5193;51.032;6.356;2023-04-21T13:39:48;20.40;99.90
10296;DHT22;5193;51.032;6.356;2023-04-21T13:42:13;20.30;99.90
10296;DHT22;5193;51.032;6.356;2023-04-21T13:44:39;20.40;99.90
10296;DHT22;5193;51.032;6.356;2023-04-21T13:47:05;20.30;99.90
10296;DHT22;5193;51.032;6.356;2023-04-21T13:49:30;20.20;99.90
10296;DHT22;5193;51.032;6.356;2023-04-21T13:51:56;20.30;99.90
10296;DHT22;5193;51.032;6.356;2023-04-21T13:54:21;20.40;99.90
10296;DHT22;5193;51.032;6.356;2023-04-21T13:56:47;20.50;99.90
10296;DHT22;5193;51.032;6.356;2023-04-21T13:59:13;20.50;99.90
10296;DHT22;5193;51.032;6.356;2023-04-21T14:01:40;20.60;99.90
10296;DHT22;5193;51.032;6.356;2023-04-21T14:04:06;20.70;99.90
10296;DHT22;5193;51.032;6.356;2023-04-21T14:06:32;20.70;99.90
10296;DHT22;5193;51.032;6.356;2023-04-21T14:08:57;20.80;99.90
10296;DHT22;5193;51.032;6.356;2023-04-21T14:11:23;20.70;99.90
10296;DHT22;5193;51.032;6.356;2023-04-21T14:13:49;20.70;99.90
10296;DHT22;5193;51.032;6.356;2023-04-21T14:16:15;20.60;99.90
10296;DHT22;5193;51.032;6.356;2023-04-21T14:18:40;20.60;99.90
10296;DHT22;5193;51.032;6.356;2023-04-21T14:21:10;20.60;99.90
10296;DHT22;5193;51.032;6.356;2023-04-21T14:23:36;20.70;99.90
10296;DHT22;5193;51.032;6.356;2023-04-21T14:26:03;20.80;99.90
10296;DHT22;5193;51.032;6.356;2023-04-21T14:28:29;20.80;99.90
10296;DHT22;5193;51.032;6.356;2023-04-21T14:30:55;20.80;99.90
10296;DHT22;5193;51.032;6.356;2023-04-21T14:33:21;20.70;99.90
10296;DHT22;5193;51.032;6.356;2023-04-21T14:35:46;20.70;99.90
10296;DHT22;5193;51.032;6.356;2023-04-21T14:38:12;20.80;99.90
10296;DHT22;5193;51.032;6.356;2023-04-21T14:40:38;20.70;99.90
10296;DHT22;5193;51.032;6.356;2023-04-21T14:43:03;20.60;99.90
10296;DHT22;5193;51.032;6.356;2023-04-21T14:45:29;20.70;99.90
10296;DHT22;5193;51.032;6.356;2023-04-21T14:47:55;20.70;99.90
10296;DHT22;5193;51.032;6.356;2023-04-21T14:50:21;20.90;99.90
10296;DHT22;5193;51.032;6.356;2023-04-21T14:52:46;20.90;99.90
10296;DHT22;5193;51.032;6.356;2023-04-21T14:55:14;20.90;99.90
10296;DHT22;5193;51.032;6.356;2023-04-21T14:57:40;20.90;99.90
10296;DHT22;5193;51.032;6.356;2023-04-21T15:00:06;20.90;99.90
10296;DHT22;5193;51.032;6.356;2023-04-21T15:02:32;20.90;99.90
10296;DHT22;5193;51.032;6.356;2023-04-21T15:04:57;20.90;99.90
10296;DHT22;5193;51.032;6.356;2023-04-21T15:07:23;20.80;99.90
10296;DHT22;5193;51.032;6.356;2023-04-21T15:09:49;20.70;99.90
10296;DHT22;5193;51.032;6.356;2023-04-21T15:12:15;20.60;99.90
10296;DHT22;5193;51.032;6.356;2023-04-21T15:14:41;20.40;99.90
10296;DHT22;5193;51.032;6.356;2023-04-21T15:17:06;20.30;99.90
10296;DHT22;5193;51.032;6.356;2023-04-21T15:19:32;20.20;99.90
10296;DHT22;5193;51.032;6.356;2023-04-21T15:21:58;20.00;99.90
10296;DHT22;5193;51.032;6.356;2023-04-21T15:24:23;20.00;99.90
10296;DHT22;5193;51.032;6.356;2023-04-21T15:26:49;19.90;99.90
10296;DHT22;5193;51.032;6.356;2023-04-21T15:29:15;19.90;99.90
10296;DHT22;5193;51.032;6.356;2023-04-21T15:31:40;19.80;99.90
10296;DHT22;5193;51.032;6.356;2023-04-21T15:34:06;19.70;99.90
10296;DHT22;5193;51.032;6.356;2023-04-21T15:36:32;19.60;99.90
10296;DHT22;5193;51.032;6.356;2023-04-21T15:38:57;19.50;99.90
10296;DHT22;5193;51.032;6.356;2023-04-21T15:41:23;19.50;99.90
10296;DHT22;5193;51.032;6.356;2023-04-21T15:43:50;19.40;99.90
10296;DHT22;5193;51.032;6.356;2023-04-21T15:46:16;19.20;99.90
10296;DHT22;5193;51.032;6.356;2023-04-21T15:48:42;19.10;99.90
10296;DHT22;5193;51.032;6.356;2023-04-21T15:51:08;19.00;99.90
10296;DHT22;5193;51.032;6.356;2023-04-21T15:53:34;19.00;99.90
10296;DHT22;5193;51.032;6.356;2023-04-21T15:56:02;18.90;99.90
10296;DHT22;5193;51.032;6.356;2023-04-21T15:58:28;18.60;99.90
10296;DHT22;5193;51.032;6.356;2023-04-21T16:00:54;18.20;99.90